Time;durP1;ratioP1;P1;durP2;ratioP2;P2;SDS_P1;SDS_P2;PMS_P1;PMS_P2;Temp;Humidity;BMP_temperature;BMP_pressure;BME280_temperature;BME280_humidity;BME280_pressure;Samples;Min_cycle;Max_cycle;Signal;HPM_P1;HPM_P2
2020/12/02 00:02:06;;;;;;;;;;;1.90;99.90;;;;;;8311866;28;20034;-67
2020/12/02 00:06:07;;;;;;;;;;;1.90;99.90;;;;;;8314772;28;19956;-68
2020/12/02 00:10:08;;;;;;;;;;;1.90;99.90;;;;;;8332847;28;19923;-67
2020/12/02 00:14:11;;;;;;;;;;;1.90;99.90;;;;;;8318114;28;19918;-67
2020/12/02 00:18:13;;;;;;;;;;;1.90;99.90;;;;;;8329591;28;20443;-67
2020/12/02 00:22:16;;;;;;;;;;;1.90;99.90;;;;;;8316260;28;19928;-68
2020/12/02 00:26:17;;;;;;;;;;;1.80;99.90;;;;;;8332768;28;19924;-68
2020/12/02 00:30:18;;;;;;;;;;;1.90;99.90;;;;;;8317081;28;20377;-67
2020/12/02 00:34:18;;;;;;;;;;;2.00;99.90;;;;;;8317111;28;20596;-67
2020/12/02 00:38:19;;;;;;;;;;;1.90;99.90;;;;;;8315985;28;20017;-67
2020/12/02 00:42:21;;;;;;;;;;;2.00;99.90;;;;;;8315985;28;19956;-67
2020/12/02 00:46:21;;;;;;;;;;;1.90;99.90;;;;;;8315588;28;19984;-67
2020/12/02 00:50:23;;;;;;;;;;;1.90;99.90;;;;;;8316698;28;19916;-67
2020/12/02 00:54:23;;;;;;;;;;;1.90;99.90;;;;;;8316856;28;19909;-67
2020/12/02 00:58:31;;;;;;;;;;;1.90;99.90;;;;;;8316574;28;19963;-67
2020/12/02 01:02:34;;;;;;;;;;;1.80;99.90;;;;;;8315575;28;19916;-67
2020/12/02 01:06:35;;;;;;;;;;;1.80;99.90;;;;;;8316276;28;19916;-68
2020/12/02 01:10:35;;;;;;;;;;;1.90;99.90;;;;;;8314911;28;19913;-68
2020/12/02 01:14:36;;;;;;;;;;;1.90;99.90;;;;;;8316108;28;20100;-67
2020/12/02 01:18:36;;;;;;;;;;;2.10;99.90;;;;;;8314419;28;19924;-67
2020/12/02 01:22:40;;;;;;;;;;;2.10;99.90;;;;;;8315822;28;20466;-67
2020/12/02 01:26:49;;;;;;;;;;;1.90;99.90;;;;;;8315596;28;19999;-67
2020/12/02 01:30:49;;;;;;;;;;;1.80;99.90;;;;;;8314842;28;20012;-67
2020/12/02 01:34:51;;;;;;;;;;;1.90;99.90;;;;;;8315861;28;19909;-68
2020/12/02 01:38:52;;;;;;;;;;;1.90;99.90;;;;;;8315070;28;20444;-68
2020/12/02 01:43:00;;;;;;;;;;;1.90;99.90;;;;;;8313755;28;19991;-67
2020/12/02 01:47:07;;;;;;;;;;;2.00;99.90;;;;;;8315481;28;20132;-67
2020/12/02 01:51:24;;;;;;;;;;;2.10;99.90;;;;;;8313784;28;19913;-67
2020/12/02 01:55:33;;;;;;;;;;;2.10;99.90;;;;;;8315067;28;19917;-67
2020/12/02 01:59:44;;;;;;;;;;;2.00;99.90;;;;;;8313324;28;19913;-68
2020/12/02 02:03:46;;;;;;;;;;;2.00;99.90;;;;;;8316745;28;19920;-67
2020/12/02 02:07:46;;;;;;;;;;;1.90;99.90;;;;;;8314457;28;19963;-67
2020/12/02 02:11:49;;;;;;;;;;;2.20;99.90;;;;;;8314525;28;19913;-67
2020/12/02 02:15:54;;;;;;;;;;;1.90;99.90;;;;;;8314474;28;19916;-67
2020/12/02 02:19:54;;;;;;;;;;;1.90;99.90;;;;;;8317262;28;19925;-67
2020/12/02 02:23:55;;;;;;;;;;;2.00;99.90;;;;;;8316663;28;19909;-67
2020/12/02 02:27:57;;;;;;;;;;;2.00;99.90;;;;;;8317217;28;19913;-67
2020/12/02 02:31:59;;;;;;;;;;;1.90;99.90;;;;;;8343067;28;20644;-67
2020/12/02 02:36:00;;;;;;;;;;;1.80;99.90;;;;;;8346355;28;20378;-67
2020/12/02 02:40:01;;;;;;;;;;;1.90;99.90;;;;;;8346190;28;19913;-67
2020/12/02 02:44:02;;;;;;;;;;;1.90;99.90;;;;;;8345957;28;19915;-67
2020/12/02 02:48:06;;;;;;;;;;;2.00;99.90;;;;;;8346184;28;19909;-67
2020/12/02 02:52:07;;;;;;;;;;;1.90;99.90;;;;;;8361502;28;19955;-68
2020/12/02 02:56:10;;;;;;;;;;;1.90;99.90;;;;;;8345836;28;19971;-67
2020/12/02 03:00:12;;;;;;;;;;;1.90;99.90;;;;;;8345540;28;20082;-67
2020/12/02 03:04:13;;;;;;;;;;;2.00;99.90;;;;;;8345942;28;19909;-68
2020/12/02 03:08:13;;;;;;;;;;;1.90;99.90;;;;;;8345592;28;20520;-67
2020/12/02 03:12:14;;;;;;;;;;;2.00;99.90;;;;;;8345666;28;19959;-67
2020/12/02 03:16:14;;;;;;;;;;;1.90;99.90;;;;;;8345588;28;19909;-68
2020/12/02 03:20:15;;;;;;;;;;;2.00;99.90;;;;;;8345229;28;19917;-68
2020/12/02 03:24:16;;;;;;;;;;;1.80;99.90;;;;;;8353875;28;20598;-67
2020/12/02 03:28:16;;;;;;;;;;;1.80;99.90;;;;;;8319362;28;19916;-67
2020/12/02 03:32:17;;;;;;;;;;;1.80;99.90;;;;;;8319105;28;20378;-67
2020/12/02 03:36:19;;;;;;;;;;;1.90;99.90;;;;;;8315894;28;19957;-68
2020/12/02 03:40:20;;;;;;;;;;;1.80;99.90;;;;;;8312179;28;20000;-68
2020/12/02 03:44:20;;;;;;;;;;;1.90;99.90;;;;;;8317325;28;19936;-66
2020/12/02 03:48:21;;;;;;;;;;;1.80;99.90;;;;;;8318499;28;19909;-67
2020/12/02 03:52:21;;;;;;;;;;;1.80;99.90;;;;;;8318675;28;19909;-67
2020/12/02 03:56:21;;;;;;;;;;;1.90;99.90;;;;;;8318441;28;19917;-68
2020/12/02 04:00:22;;;;;;;;;;;1.70;99.90;;;;;;8317268;28;19921;-69
2020/12/02 04:04:22;;;;;;;;;;;2.00;99.90;;;;;;8319105;28;20318;-69
2020/12/02 04:08:23;;;;;;;;;;;1.90;99.90;;;;;;8318691;28;20405;-69
2020/12/02 04:12:24;;;;;;;;;;;1.90;99.90;;;;;;8318395;28;19963;-69
2020/12/02 04:16:24;;;;;;;;;;;1.90;99.90;;;;;;8317332;28;19915;-69
2020/12/02 04:20:25;;;;;;;;;;;1.90;99.90;;;;;;8318482;28;19983;-69
2020/12/02 04:24:26;;;;;;;;;;;1.90;99.90;;;;;;8318381;28;19910;-69
2020/12/02 04:28:26;;;;;;;;;;;1.80;99.90;;;;;;8317331;28;20039;-69
2020/12/02 04:32:27;;;;;;;;;;;1.80;99.90;;;;;;8316441;28;19924;-69
2020/12/02 04:36:27;;;;;;;;;;;1.80;99.90;;;;;;8316908;28;19943;-69
2020/12/02 04:40:32;;;;;;;;;;;1.80;99.90;;;;;;8316957;28;19917;-69
2020/12/02 04:44:33;;;;;;;;;;;1.70;99.90;;;;;;8313468;28;19919;-69
2020/12/02 04:48:33;;;;;;;;;;;1.80;99.90;;;;;;8316760;28;19924;-69
2020/12/02 04:52:34;;;;;;;;;;;1.70;99.90;;;;;;8307802;28;19988;-69
2020/12/02 04:56:35;;;;;;;;;;;1.70;99.90;;;;;;8285730;28;19913;-69
2020/12/02 05:00:36;;;;;;;;;;;1.70;99.90;;;;;;8289157;28;19971;-69
2020/12/02 05:04:36;;;;;;;;;;;1.70;99.90;;;;;;8300386;28;19913;-69
2020/12/02 05:08:38;;;;;;;;;;;1.60;99.90;;;;;;8302408;28;19920;-69
2020/12/02 05:12:41;;;;;;;;;;;1.60;99.90;;;;;;8300094;28;19917;-69
2020/12/02 05:16:42;;;;;;;;;;;1.50;99.90;;;;;;8288192;28;19917;-69
2020/12/02 05:20:43;;;;;;;;;;;1.60;99.90;;;;;;8282424;28;20302;-69
2020/12/02 05:24:45;;;;;;;;;;;1.60;99.90;;;;;;8288398;28;19913;-69
2020/12/02 05:28:46;;;;;;;;;;;1.60;99.90;;;;;;8286241;28;19920;-69
2020/12/02 05:33:01;;;;;;;;;;;1.50;99.90;;;;;;8307314;28;20219;-69
2020/12/02 05:37:06;;;;;;;;;;;1.60;99.90;;;;;;8303199;28;19916;-68
2020/12/02 05:41:10;;;;;;;;;;;1.50;99.90;;;;;;8290917;28;19917;-68
2020/12/02 05:45:13;;;;;;;;;;;1.50;99.90;;;;;;8296737;28;19914;-68
2020/12/02 05:49:26;;;;;;;;;;;1.60;99.90;;;;;;8300841;28;19914;-72
2020/12/02 05:53:31;;;;;;;;;;;1.60;99.90;;;;;;8302048;28;19964;-71
2020/12/02 05:57:33;;;;;;;;;;;1.40;99.90;;;;;;8311723;28;19917;-71
2020/12/02 06:01:34;;;;;;;;;;;1.40;99.90;;;;;;8313133;28;19917;-71
2020/12/02 06:05:34;;;;;;;;;;;1.40;99.90;;;;;;8313504;28;20420;-71
2020/12/02 06:09:49;;;;;;;;;;;1.40;99.90;;;;;;8312827;28;19916;-71
2020/12/02 06:13:49;;;;;;;;;;;1.30;99.90;;;;;;8311418;28;20390;-71
2020/12/02 06:17:51;;;;;;;;;;;1.50;99.90;;;;;;8311756;28;19988;-71
2020/12/02 06:22:02;;;;;;;;;;;1.50;99.90;;;;;;8313370;28;20386;-71
2020/12/02 06:26:02;;;;;;;;;;;1.50;99.90;;;;;;8313429;28;19944;-71
2020/12/02 06:30:06;;;;;;;;;;;1.30;99.90;;;;;;8312929;28;20398;-71
2020/12/02 06:34:20;;;;;;;;;;;1.20;99.90;;;;;;8313098;28;20198;-71
2020/12/02 06:38:22;;;;;;;;;;;1.30;99.90;;;;;;8313522;28;19913;-71
2020/12/02 06:42:26;;;;;;;;;;;1.30;99.90;;;;;;8312960;28;19909;-71
2020/12/02 06:46:41;;;;;;;;;;;1.20;99.90;;;;;;8311885;28;19909;-71
2020/12/02 06:50:42;;;;;;;;;;;1.30;99.90;;;;;;8312310;28;19915;-71
2020/12/02 06:54:42;;;;;;;;;;;1.20;99.90;;;;;;8310709;28;19909;-71
2020/12/02 06:58:43;;;;;;;;;;;1.30;99.90;;;;;;8312370;28;19996;-71
2020/12/02 07:02:56;;;;;;;;;;;1.10;99.90;;;;;;8312683;28;19914;-71
2020/12/02 07:06:57;;;;;;;;;;;1.10;99.90;;;;;;8310872;28;20003;-71
2020/12/02 07:11:10;;;;;;;;;;;1.30;99.90;;;;;;8312094;28;19914;-71
2020/12/02 07:15:11;;;;;;;;;;;1.30;99.90;;;;;;8310821;28;20210;-71
2020/12/02 07:19:13;;;;;;;;;;;1.30;99.90;;;;;;8310174;28;19917;-71
2020/12/02 07:23:19;;;;;;;;;;;1.30;99.90;;;;;;8311986;28;20031;-71
2020/12/02 07:27:21;;;;;;;;;;;1.30;99.90;;;;;;8310399;28;19909;-71
2020/12/02 07:31:23;;;;;;;;;;;1.40;99.90;;;;;;8311737;28;19909;-71
2020/12/02 07:35:25;;;;;;;;;;;1.30;99.90;;;;;;8311949;28;20267;-71
2020/12/02 07:39:26;;;;;;;;;;;1.30;99.90;;;;;;8311630;28;19921;-71
2020/12/02 07:43:29;;;;;;;;;;;1.30;99.90;;;;;;8311734;28;19932;-71
2020/12/02 07:47:31;;;;;;;;;;;1.20;99.90;;;;;;8311362;28;19909;-71
2020/12/02 07:51:46;;;;;;;;;;;1.30;99.90;;;;;;8311574;28;20419;-71
2020/12/02 07:55:49;;;;;;;;;;;1.20;99.90;;;;;;8311144;28;19916;-71
2020/12/02 08:00:11;;;;;;;;;;;1.20;99.90;;;;;;8311361;28;19917;-71
2020/12/02 08:04:27;;;;;;;;;;;1.20;99.90;;;;;;8311567;28;19913;-71
2020/12/02 08:08:27;;;;;;;;;;;1.10;99.90;;;;;;8311617;28;20268;-71
2020/12/02 08:12:29;;;;;;;;;;;1.00;99.90;;;;;;8309826;28;19948;-71
2020/12/02 08:16:37;;;;;;;;;;;1.00;99.90;;;;;;8310049;28;19913;-71
2020/12/02 08:20:38;;;;;;;;;;;1.00;99.90;;;;;;8310863;28;20062;-72
2020/12/02 08:24:41;;;;;;;;;;;1.00;99.90;;;;;;8311321;28;19909;-71
2020/12/02 08:28:41;;;;;;;;;;;1.10;99.90;;;;;;8314688;28;20168;-71
2020/12/02 08:32:46;;;;;;;;;;;0.90;99.90;;;;;;8317111;28;19909;-71
2020/12/02 08:36:47;;;;;;;;;;;0.90;99.90;;;;;;8317105;28;19971;-71
2020/12/02 08:40:48;;;;;;;;;;;1.00;99.90;;;;;;8315144;28;20382;-71
2020/12/02 08:45:08;;;;;;;;;;;1.00;99.90;;;;;;8317198;28;20283;-71
2020/12/02 08:49:08;;;;;;;;;;;0.80;99.90;;;;;;8314493;28;20023;-71
2020/12/02 08:53:09;;;;;;;;;;;0.90;99.90;;;;;;8316496;28;20512;-71
2020/12/02 08:57:11;;;;;;;;;;;1.10;99.90;;;;;;8315582;28;19909;-71
2020/12/02 09:01:11;;;;;;;;;;;1.00;99.90;;;;;;8314894;28;19913;-71
2020/12/02 09:05:12;;;;;;;;;;;1.00;99.90;;;;;;8315862;28;19909;-71
2020/12/02 09:09:12;;;;;;;;;;;1.20;99.90;;;;;;8315841;28;20366;-71
2020/12/02 09:13:13;;;;;;;;;;;1.10;99.90;;;;;;8314526;28;19913;-71
2020/12/02 09:17:14;;;;;;;;;;;1.00;99.90;;;;;;8315582;28;19909;-71
2020/12/02 09:21:14;;;;;;;;;;;0.80;99.90;;;;;;8314046;28;19944;-71
2020/12/02 09:25:15;;;;;;;;;;;0.80;99.90;;;;;;8315633;28;19913;-71
2020/12/02 09:29:15;;;;;;;;;;;0.90;99.90;;;;;;8315196;28;20367;-71
2020/12/02 09:33:16;;;;;;;;;;;0.90;99.90;;;;;;8315774;28;20379;-71
2020/12/02 09:37:16;;;;;;;;;;;1.00;99.90;;;;;;8315137;28;19912;-72
2020/12/02 09:41:39;;;;;;;;;;;1.20;99.90;;;;;;8315102;28;19921;-71
2020/12/02 09:45:46;;;;;;;;;;;1.10;99.90;;;;;;8314839;28;19919;-71
2020/12/02 09:49:48;;;;;;;;;;;1.20;99.90;;;;;;8314194;28;19916;-71
2020/12/02 09:53:49;;;;;;;;;;;1.20;99.90;;;;;;8315054;28;20078;-72
2020/12/02 09:57:50;;;;;;;;;;;1.00;99.90;;;;;;8358966;22;19984;-74
2020/12/02 10:02:09;;;;;;;;;;;1.20;99.90;;;;;;8263493;28;19945;-73
2020/12/02 10:06:10;;;;;;;;;;;1.40;99.90;;;;;;8264556;28;19982;-72
2020/12/02 10:10:24;;;;;;;;;;;1.40;99.90;;;;;;8273510;28;19909;-74
2020/12/02 10:14:31;;;;;;;;;;;1.40;99.90;;;;;;8281552;28;19913;-74
2020/12/02 10:18:50;;;;;;;;;;;1.40;99.90;;;;;;8296507;28;19918;-73
2020/12/02 10:23:01;;;;;;;;;;;1.40;99.90;;;;;;8280931;28;20005;-73
2020/12/02 10:27:07;;;;;;;;;;;1.40;99.90;;;;;;8280984;28;19986;-74
2020/12/02 10:31:18;;;;;;;;;;;1.40;99.90;;;;;;8295895;28;19909;-73
2020/12/02 10:35:19;;;;;;;;;;;1.40;99.90;;;;;;8281150;28;19909;-73
2020/12/02 10:39:22;;;;;;;;;;;1.20;99.90;;;;;;8280611;28;19963;-74
2020/12/02 10:43:38;;;;;;;;;;;1.10;99.90;;;;;;8281090;28;19917;-73
2020/12/02 10:47:57;;;;;;;;;;;1.00;99.90;;;;;;8279206;28;19909;-73
2020/12/02 10:52:00;;;;;;;;;;;0.70;99.90;;;;;;8280042;28;19914;-73
2020/12/02 10:56:00;;;;;;;;;;;0.60;99.90;;;;;;8279903;28;19909;-73
2020/12/02 11:00:03;;;;;;;;;;;0.40;99.90;;;;;;8278821;28;19943;-74
2020/12/02 11:04:05;;;;;;;;;;;0.50;99.90;;;;;;8279295;28;19920;-73
2020/12/02 11:08:20;;;;;;;;;;;0.80;99.90;;;;;;8294981;28;19925;-73
2020/12/02 11:12:27;;;;;;;;;;;0.90;99.90;;;;;;8295074;28;19960;-73
2020/12/02 11:16:32;;;;;;;;;;;0.80;99.90;;;;;;8280184;28;19987;-72
2020/12/02 11:20:38;;;;;;;;;;;0.70;99.90;;;;;;8294790;28;19909;-73
2020/12/02 11:24:59;;;;;;;;;;;0.30;99.90;;;;;;8279787;28;19979;-73
2020/12/02 11:29:00;;;;;;;;;;;0.30;99.90;;;;;;8279649;28;20785;-73
2020/12/02 11:33:12;;;;;;;;;;;0.40;99.90;;;;;;8294841;28;19916;-73
2020/12/02 11:37:34;;;;;;;;;;;0.10;99.90;;;;;;8280035;28;20318;-73
2020/12/02 11:41:42;;;;;;;;;;;0.20;99.90;;;;;;8294724;28;19917;-73
2020/12/02 11:45:44;;;;;;;;;;;0.10;99.90;;;;;;8294509;28;19909;-73
2020/12/02 11:49:51;;;;;;;;;;;0.30;99.90;;;;;;8293946;28;20363;-74
2020/12/02 11:53:56;;;;;;;;;;;0.20;99.90;;;;;;8279606;28;19910;-74
2020/12/02 11:57:58;;;;;;;;;;;0.30;99.90;;;;;;8293887;28;20256;-73
2020/12/02 12:02:20;;;;;;;;;;;0.00;99.90;;;;;;8296712;28;19913;-74
2020/12/02 12:06:23;;;;;;;;;;;0.00;99.90;;;;;;8284110;28;19910;-73
2020/12/02 12:10:32;;;;;;;;;;;0.20;99.90;;;;;;8299881;28;19961;-73
2020/12/02 12:14:56;;;;;;;;;;;0.30;99.90;;;;;;8285350;28;19948;-73
2020/12/02 12:19:16;;;;;;;;;;;0.30;99.90;;;;;;8279411;28;19933;-74
2020/12/02 12:23:22;;;;;;;;;;;0.40;99.90;;;;;;8300002;28;19916;-74
2020/12/02 12:27:23;;;;;;;;;;;0.50;99.90;;;;;;8285201;28;19932;-73
2020/12/02 12:31:43;;;;;;;;;;;0.70;99.90;;;;;;8284371;28;19940;-73
2020/12/02 12:35:48;;;;;;;;;;;0.70;99.90;;;;;;8284028;28;19922;-74
2020/12/02 12:39:52;;;;;;;;;;;0.90;99.90;;;;;;8299431;28;19921;-74
2020/12/02 12:44:02;;;;;;;;;;;1.10;99.90;;;;;;8314407;28;20390;-74
2020/12/02 12:48:04;;;;;;;;;;;1.30;99.90;;;;;;8310551;28;20220;-74
2020/12/02 12:52:05;;;;;;;;;;;1.40;99.90;;;;;;8298947;28;20615;-74
2020/12/02 12:56:07;;;;;;;;;;;1.50;99.90;;;;;;8297704;28;19909;-74
2020/12/02 13:00:09;;;;;;;;;;;1.50;99.90;;;;;;8297590;28;19917;-74
2020/12/02 13:04:11;;;;;;;;;;;1.50;99.90;;;;;;8287648;28;19925;-74
2020/12/02 13:08:20;;;;;;;;;;;1.30;99.90;;;;;;8247162;28;20321;-74
2020/12/02 13:12:24;;;;;;;;;;;1.20;99.90;;;;;;8270132;28;19918;-74
2020/12/02 13:16:45;;;;;;;;;;;1.10;99.90;;;;;;8281633;28;19921;-74
2020/12/02 13:20:49;;;;;;;;;;;0.80;99.90;;;;;;8261460;28;19952;-73
2020/12/02 13:25:02;;;;;;;;;;;0.70;99.90;;;;;;8257993;28;20147;-74
2020/12/02 13:29:22;;;;;;;;;;;0.80;99.90;;;;;;8255087;28;20389;-74
2020/12/02 13:33:25;;;;;;;;;;;0.90;99.90;;;;;;8275607;28;19925;-74
2020/12/02 13:37:26;;;;;;;;;;;0.80;99.90;;;;;;8265836;28;19921;-74
2020/12/02 13:41:34;;;;;;;;;;;0.80;99.90;;;;;;8259564;28;19972;-74
2020/12/02 13:45:35;;;;;;;;;;;0.70;99.90;;;;;;8276359;28;19924;-74
2020/12/02 13:49:35;;;;;;;;;;;0.70;99.90;;;;;;8283698;28;20162;-73
2020/12/02 13:53:39;;;;;;;;;;;0.60;99.90;;;;;;8267393;28;19922;-75
2020/12/02 13:57:39;;;;;;;;;;;0.60;99.90;;;;;;8260854;28;20310;-74
2020/12/02 14:01:43;;;;;;;;;;;0.60;99.90;;;;;;8259275;28;19968;-73
2020/12/02 14:05:46;;;;;;;;;;;0.50;99.90;;;;;;8270436;28;19917;-75
2020/12/02 14:09:52;;;;;;;;;;;0.30;99.90;;;;;;8258194;28;19992;-73
2020/12/02 14:13:53;;;;;;;;;;;0.30;99.90;;;;;;8256191;28;20000;-73
2020/12/02 14:17:54;;;;;;;;;;;-0.10;99.90;;;;;;8277281;28;19917;-73
2020/12/02 14:22:15;;;;;;;;;;;-0.20;99.90;;;;;;8276520;28;19921;-74
2020/12/02 14:26:16;;;;;;;;;;;-0.10;99.90;;;;;;8250923;28;19917;-75
2020/12/02 14:30:24;;;;;;;;;;;0.00;99.90;;;;;;8255574;28;19921;-72
2020/12/02 14:34:24;;;;;;;;;;;0.00;99.90;;;;;;8259540;28;20106;-74
2020/12/02 14:38:25;;;;;;;;;;;0.10;99.90;;;;;;8250498;28;20480;-74
2020/12/02 14:42:26;;;;;;;;;;;0.00;99.90;;;;;;8266058;28;20307;-74
2020/12/02 14:46:26;;;;;;;;;;;0.00;99.90;;;;;;8287447;28;20571;-73
2020/12/02 14:50:27;;;;;;;;;;;-0.10;99.90;;;;;;8274924;28;20411;-73
2020/12/02 14:54:27;;;;;;;;;;;-0.10;99.90;;;;;;8275096;28;19917;-74
2020/12/02 14:58:33;;;;;;;;;;;-0.10;99.90;;;;;;8274204;28;20209;-74
2020/12/02 15:02:34;;;;;;;;;;;-0.10;99.90;;;;;;8289884;28;19972;-74
2020/12/02 15:06:49;;;;;;;;;;;-0.20;99.90;;;;;;8274301;28;19924;-73
2020/12/02 15:10:49;;;;;;;;;;;-0.20;99.90;;;;;;8275160;28;19929;-73
2020/12/02 15:14:50;;;;;;;;;;;-0.20;99.90;;;;;;8290976;28;19918;-73
2020/12/02 15:18:50;;;;;;;;;;;-0.20;99.90;;;;;;8272392;28;20223;-73
2020/12/02 15:22:52;;;;;;;;;;;-0.30;99.90;;;;;;8275299;28;19959;-73
2020/12/02 15:26:54;;;;;;;;;;;-0.40;99.90;;;;;;8277684;28;19945;-73
2020/12/02 15:30:56;;;;;;;;;;;-0.30;99.90;;;;;;8255883;28;19926;-73
2020/12/02 15:34:57;;;;;;;;;;;-0.40;99.90;;;;;;8262016;28;20187;-73
2020/12/02 15:39:06;;;;;;;;;;;-0.40;99.90;;;;;;8276774;28;19929;-72
2020/12/02 15:43:16;;;;;;;;;;;-0.40;99.90;;;;;;8277418;28;20011;-72
2020/12/02 15:47:16;;;;;;;;;;;-0.50;99.90;;;;;;8268553;28;20289;-74
2020/12/02 15:51:17;;;;;;;;;;;-0.80;99.90;;;;;;8277734;28;19917;-71
2020/12/02 15:55:21;;;;;;;;;;;-1.10;99.90;;;;;;8274368;28;19968;-73
2020/12/02 15:59:21;;;;;;;;;;;-1.10;99.90;;;;;;8280750;22;19964;-68
2020/12/02 16:03:24;;;;;;;;;;;-1.00;99.90;;;;;;8248736;28;20287;-68
2020/12/02 16:07:27;;;;;;;;;;;-1.00;99.90;;;;;;8249890;28;19964;-67
2020/12/02 16:11:29;;;;;;;;;;;-0.80;99.90;;;;;;8240663;28;20207;-69
2020/12/02 16:15:30;;;;;;;;;;;-0.70;99.90;;;;;;8244743;28;19936;-68
2020/12/02 16:19:30;;;;;;;;;;;-0.80;99.90;;;;;;8248348;28;19917;-68
2020/12/02 16:23:35;;;;;;;;;;;-0.80;99.90;;;;;;8238355;28;19918;-69
2020/12/02 16:27:36;;;;;;;;;;;-0.90;99.90;;;;;;8249528;28;20334;-67
2020/12/02 16:31:36;;;;;;;;;;;-0.80;99.90;;;;;;8245534;28;19996;-69
2020/12/02 16:35:37;;;;;;;;;;;-0.80;99.90;;;;;;8245368;28;20013;-68
2020/12/02 16:39:37;;;;;;;;;;;-1.00;99.90;;;;;;8245775;28;19917;-69
2020/12/02 16:43:51;;;;;;;;;;;-1.10;99.90;;;;;;8250551;28;19918;-73
2020/12/02 16:47:52;;;;;;;;;;;-1.30;99.90;;;;;;8262901;28;20338;-67
2020/12/02 16:51:52;;;;;;;;;;;-1.10;99.90;;;;;;8248331;28;19971;-70
2020/12/02 16:56:01;;;;;;;;;;;-1.00;99.90;;;;;;8265375;28;19914;-70
2020/12/02 17:00:10;;;;;;;;;;;-1.00;99.90;;;;;;8249353;28;19953;-70
2020/12/02 17:04:11;;;;;;;;;;;-1.00;99.90;;;;;;8249783;28;19910;-70
2020/12/02 17:08:12;;;;;;;;;;;-0.90;99.90;;;;;;8248419;28;19914;-70
2020/12/02 17:12:22;;;;;;;;;;;-1.00;99.90;;;;;;8247727;28;20145;-70
2020/12/02 17:16:32;;;;;;;;;;;-0.90;99.90;;;;;;8231564;28;19929;-70
2020/12/02 17:20:44;;;;;;;;;;;-0.90;99.90;;;;;;8240021;28;19914;-70
2020/12/02 17:24:51;;;;;;;;;;;-1.20;99.90;;;;;;8243750;28;19928;-69
2020/12/02 17:28:55;;;;;;;;;;;-1.10;99.90;;;;;;8259799;28;20245;-69
2020/12/02 17:33:10;;;;;;;;;;;-1.20;99.90;;;;;;8235276;28;19925;-69
2020/12/02 17:37:29;;;;;;;;;;;-1.40;99.90;;;;;;8234673;28;19936;-70
2020/12/02 17:41:29;;;;;;;;;;;-1.40;99.90;;;;;;8240918;28;19960;-69
2020/12/02 17:45:36;;;;;;;;;;;-1.40;99.90;;;;;;8248061;28;19910;-70
2020/12/02 17:49:36;;;;;;;;;;;-1.30;99.90;;;;;;8227573;28;20291;-69
2020/12/02 17:53:38;;;;;;;;;;;-1.10;99.90;;;;;;8222524;28;20014;-69
2020/12/02 17:57:40;;;;;;;;;;;-1.10;99.90;;;;;;8247310;28;19979;-70
2020/12/02 18:02:03;;;;;;;;;;;-1.00;99.90;;;;;;8233494;28;19918;-70
2020/12/02 18:06:03;;;;;;;;;;;-1.00;99.90;;;;;;8229253;28;19925;-70
2020/12/02 18:10:22;;;;;;;;;;;-0.70;99.90;;;;;;8241044;28;19914;-70
2020/12/02 18:14:27;;;;;;;;;;;-0.90;99.90;;;;;;8241736;28;19920;-70
2020/12/02 18:18:28;;;;;;;;;;;-0.90;99.90;;;;;;8237064;28;20422;-69
2020/12/02 18:22:36;;;;;;;;;;;-1.00;99.90;;;;;;8252863;28;19921;-70
2020/12/02 18:26:52;;;;;;;;;;;-1.10;99.90;;;;;;8238268;28;19957;-69
2020/12/02 18:30:58;;;;;;;;;;;-1.10;99.90;;;;;;8239241;28;20016;-69
2020/12/02 18:35:02;;;;;;;;;;;-1.30;99.90;;;;;;8239742;28;19925;-69
2020/12/02 18:39:05;;;;;;;;;;;-1.30;99.90;;;;;;8258080;28;20632;-69
2020/12/02 18:43:24;;;;;;;;;;;-1.30;99.90;;;;;;8241516;28;19909;-69
2020/12/02 18:47:25;;;;;;;;;;;-1.40;99.90;;;;;;8244302;28;20299;-69
2020/12/02 18:51:26;;;;;;;;;;;-1.40;99.90;;;;;;8227760;28;19922;-69
2020/12/02 18:55:26;;;;;;;;;;;-1.50;99.90;;;;;;8222343;28;19920;-70
2020/12/02 18:59:37;;;;;;;;;;;-1.40;99.90;;;;;;8225105;28;19922;-70
2020/12/02 19:03:38;;;;;;;;;;;-1.40;99.90;;;;;;8243686;28;20559;-70
2020/12/02 19:07:39;;;;;;;;;;;-1.40;99.90;;;;;;8242485;28;19965;-69
2020/12/02 19:11:43;;;;;;;;;;;-1.40;99.90;;;;;;8243309;28;19925;-69
2020/12/02 19:16:02;;;;;;;;;;;-1.10;99.90;;;;;;8253563;28;19917;-69
2020/12/02 19:20:04;;;;;;;;;;;-1.20;99.90;;;;;;8231677;28;19918;-69
2020/12/02 19:24:11;;;;;;;;;;;-1.40;99.90;;;;;;8234603;28;21463;-70
2020/12/02 19:28:12;;;;;;;;;;;-1.40;99.90;;;;;;8241944;28;19921;-69
2020/12/02 19:32:26;;;;;;;;;;;-1.20;99.90;;;;;;8256593;28;20468;-69
2020/12/02 19:36:36;;;;;;;;;;;-1.10;99.90;;;;;;8225755;28;20327;-70
2020/12/02 19:40:39;;;;;;;;;;;-1.40;99.90;;;;;;8240207;28;19924;-70
2020/12/02 19:44:58;;;;;;;;;;;-1.50;99.90;;;;;;8235678;28;19918;-70
2020/12/02 19:48:59;;;;;;;;;;;-1.50;99.90;;;;;;8233082;28;20339;-70
2020/12/02 19:53:03;;;;;;;;;;;-1.50;99.90;;;;;;8225229;28;19972;-70
2020/12/02 19:57:23;;;;;;;;;;;-1.50;99.90;;;;;;8251865;28;19961;-70
2020/12/02 20:01:32;;;;;;;;;;;-1.50;99.90;;;;;;8228125;28;19922;-70
2020/12/02 20:05:38;;;;;;;;;;;-1.60;99.90;;;;;;8232495;28;19968;-70
2020/12/02 20:09:54;;;;;;;;;;;-1.60;99.90;;;;;;8239695;28;19981;-71
2020/12/02 20:13:54;;;;;;;;;;;-1.60;99.90;;;;;;8240493;28;19914;-70
2020/12/02 20:18:14;;;;;;;;;;;-1.60;99.90;;;;;;8244011;28;19960;-71
2020/12/02 20:22:23;;;;;;;;;;;-1.70;99.90;;;;;;8230525;28;19980;-64
2020/12/02 20:26:56;;;;;;;;;;;-1.70;99.90;;;;;;8242791;28;20419;-64
2020/12/02 20:31:04;;;;;;;;;;;-1.90;99.90;;;;;;8240102;28;20072;-63
2020/12/02 20:35:10;;;;;;;;;;;-2.00;99.90;;;;;;8240598;28;20138;-65
2020/12/02 20:39:11;;;;;;;;;;;-2.00;99.90;;;;;;8257839;28;19988;-69
2020/12/02 20:43:12;;;;;;;;;;;-2.00;99.90;;;;;;8265287;28;19924;-69
2020/12/02 20:47:28;;;;;;;;;;;-2.00;99.90;;;;;;8275940;28;19913;-70
2020/12/02 20:51:36;;;;;;;;;;;-1.90;99.90;;;;;;8278508;28;19929;-70
2020/12/02 20:55:43;;;;;;;;;;;-1.90;99.90;;;;;;8278085;28;20011;-69
2020/12/02 20:59:55;;;;;;;;;;;-1.90;99.90;;;;;;8275802;28;20565;-69
2020/12/02 21:03:56;;;;;;;;;;;-1.90;99.90;;;;;;8292026;28;19920;-69
2020/12/02 21:08:00;;;;;;;;;;;-1.80;99.90;;;;;;8279159;28;19924;-69
2020/12/02 21:12:02;;;;;;;;;;;-2.00;99.90;;;;;;8278081;28;19956;-69
2020/12/02 21:16:26;;;;;;;;;;;-2.10;99.90;;;;;;8279941;28;19924;-70
2020/12/02 21:20:37;;;;;;;;;;;-2.00;99.90;;;;;;8274071;28;19914;-69
2020/12/02 21:24:47;;;;;;;;;;;-1.90;99.90;;;;;;8277162;28;19940;-69
2020/12/02 21:29:07;;;;;;;;;;;-1.70;99.90;;;;;;8278320;28;19926;-69
2020/12/02 21:33:07;;;;;;;;;;;-1.70;99.90;;;;;;8276139;28;19924;-69
2020/12/02 21:37:27;;;;;;;;;;;-1.80;99.90;;;;;;8275497;28;19914;-71
2020/12/02 21:41:39;;;;;;;;;;;-1.80;99.90;;;;;;8276720;28;19916;-69
2020/12/02 21:45:39;;;;;;;;;;;-1.70;99.90;;;;;;8277602;28;19916;-70
2020/12/02 21:49:58;;;;;;;;;;;-1.80;99.90;;;;;;8278333;28;19917;-69
2020/12/02 21:54:18;;;;;;;;;;;-1.70;99.90;;;;;;8277714;28;19961;-69
2020/12/02 21:58:27;;;;;;;;;;;-1.60;99.90;;;;;;8276184;28;19918;-70
2020/12/02 22:02:34;;;;;;;;;;;-1.60;99.90;;;;;;8272995;28;19918;-69
2020/12/02 22:06:44;;;;;;;;;;;-1.70;99.90;;;;;;8275694;28;20369;-69
2020/12/02 22:10:50;;;;;;;;;;;-1.70;99.90;;;;;;8277330;28;19921;-70
2020/12/02 22:14:52;;;;;;;;;;;-1.80;99.90;;;;;;8281321;28;19964;-70
2020/12/02 22:18:52;;;;;;;;;;;-1.80;99.90;;;;;;8281257;28;19909;-70
2020/12/02 22:23:05;;;;;;;;;;;-1.80;99.90;;;;;;8296952;28;20504;-70
2020/12/02 22:27:10;;;;;;;;;;;-1.70;99.90;;;;;;8281130;28;19910;-70
2020/12/02 22:31:35;;;;;;;;;;;-1.70;99.90;;;;;;8280420;28;19914;-70
2020/12/02 22:35:58;;;;;;;;;;;-1.60;99.90;;;;;;8280309;28;20008;-70
2020/12/02 22:40:17;;;;;;;;;;;-1.50;99.90;;;;;;8280536;28;19913;-70
2020/12/02 22:44:21;;;;;;;;;;;-1.30;99.90;;;;;;8295592;28;19968;-70
2020/12/02 22:48:42;;;;;;;;;;;-1.30;99.90;;;;;;8280514;28;19909;-70
2020/12/02 22:52:43;;;;;;;;;;;-1.30;99.90;;;;;;8280428;28;19941;-70
2020/12/02 22:56:51;;;;;;;;;;;-1.30;99.90;;;;;;8280311;28;20569;-70
2020/12/02 23:00:52;;;;;;;;;;;-1.30;99.90;;;;;;8279492;28;19926;-70
2020/12/02 23:04:53;;;;;;;;;;;-1.40;99.90;;;;;;8278568;28;20459;-70
2020/12/02 23:08:59;;;;;;;;;;;-1.30;99.90;;;;;;8278471;28;19914;-69
2020/12/02 23:13:02;;;;;;;;;;;-1.40;99.90;;;;;;8278877;28;20500;-70
2020/12/02 23:17:06;;;;;;;;;;;-1.20;99.90;;;;;;8279984;28;19917;-70
2020/12/02 23:21:18;;;;;;;;;;;-1.10;99.90;;;;;;8279867;28;19960;-70
2020/12/02 23:25:20;;;;;;;;;;;-1.20;99.90;;;;;;8279580;28;19974;-70
2020/12/02 23:29:38;;;;;;;;;;;-1.20;99.90;;;;;;8279697;28;20439;-71
2020/12/02 23:33:51;;;;;;;;;;;-1.10;99.90;;;;;;8278787;28;20028;-70
2020/12/02 23:37:52;;;;;;;;;;;-1.00;99.90;;;;;;8279591;28;19920;-71
2020/12/02 23:41:57;;;;;;;;;;;-1.00;99.90;;;;;;8279618;28;20310;-71
2020/12/02 23:46:15;;;;;;;;;;;-1.00;99.90;;;;;;8279883;28;19936;-72
2020/12/02 23:50:22;;;;;;;;;;;-0.80;99.90;;;;;;8279478;28;20575;-71
2020/12/02 23:54:22;;;;;;;;;;;-0.90;99.90;;;;;;8279863;28;19914;-71
2020/12/02 23:58:24;;;;;;;;;;;-1.00;99.90;;;;;;8283359;28;19914;-70
